createdAt,value
2022-11-01T00:02:05.787Z,24.13
2022-11-01T00:04:32.505Z,20.08
2022-11-01T00:06:59.230Z,25.20
2022-11-01T00:09:25.940Z,17.30
2022-11-01T00:11:52.583Z,17.75
2022-11-01T00:14:20.215Z,16.23
2022-11-01T00:16:47.424Z,19.48
2022-11-01T00:19:14.329Z,25.15
2022-11-01T00:21:41.098Z,22.38
2022-11-01T00:24:07.950Z,28.63
2022-11-01T00:26:34.848Z,30.95
2022-11-01T00:29:01.613Z,33.42
2022-11-01T00:31:28.391Z,30.38
2022-11-01T00:33:55.039Z,31.08
2022-11-01T00:36:21.746Z,30.33
2022-11-01T00:38:52.716Z,36.13
2022-11-01T00:41:20.887Z,32.92
2022-11-01T00:43:47.941Z,31.35
2022-11-01T00:46:15.056Z,40.80
2022-11-01T00:48:41.932Z,32.88
2022-11-01T00:51:08.639Z,28.90
2022-11-01T00:53:35.391Z,30.70
2022-11-01T00:56:06.454Z,34.42
2022-11-01T00:58:33.602Z,33.28
2022-11-01T01:01:00.672Z,38.90
2022-11-01T01:03:27.461Z,40.30
2022-11-01T01:05:54.486Z,37.63
2022-11-01T01:08:21.584Z,41.63
2022-11-01T01:10:48.235Z,44.13
2022-11-01T01:13:15.133Z,40.20
2022-11-01T01:15:42.045Z,41.15
2022-11-01T01:18:09.127Z,45.60
2022-11-01T01:20:35.853Z,44.03
2022-11-01T01:23:02.728Z,47.47
2022-11-01T01:25:29.574Z,42.88
2022-11-01T01:27:57.012Z,38.88
2022-11-01T01:30:23.897Z,35.25
2022-11-01T01:32:50.864Z,47.38
2022-11-01T01:35:17.583Z,44.55
2022-11-01T01:37:44.284Z,36.65
2022-11-01T01:40:11.098Z,39.17
2022-11-01T01:42:40.231Z,41.83
2022-11-01T01:45:40.011Z,32.90
2022-11-01T01:48:23.894Z,38.72
2022-11-01T01:50:57.213Z,43.42
2022-11-01T01:53:38.757Z,40.95
2022-11-01T01:56:19.413Z,41.13
2022-11-01T01:58:54.894Z,44.38
2022-11-01T02:01:21.741Z,39.92
2022-11-01T02:03:48.876Z,39.15
2022-11-01T02:06:19.162Z,30.30
2022-11-01T02:08:55.460Z,38.60
2022-11-01T02:11:22.854Z,33.72
2022-11-01T02:13:50.528Z,38.25
2022-11-01T02:16:43.994Z,37.25
2022-11-01T02:19:49.818Z,35.17
2022-11-01T02:22:24.752Z,37.92
2022-11-01T02:25:24.043Z,35.22
2022-11-01T02:28:29.793Z,30.83
2022-11-01T02:31:33.288Z,33.33
2022-11-01T02:34:07.024Z,32.90
2022-11-01T02:36:44.094Z,38.28
2022-11-01T02:39:23.235Z,38.72
2022-11-01T02:42:07.382Z,36.55
2022-11-01T02:44:38.696Z,35.03
2022-11-01T02:47:06.579Z,41.58
2022-11-01T02:49:43.182Z,35.53
2022-11-01T02:52:13.886Z,29.65
2022-11-01T02:54:46.183Z,33.40
2022-11-01T02:57:37.331Z,36.05
2022-11-01T03:00:24.629Z,33.03
2022-11-01T03:03:07.194Z,35.17
2022-11-01T03:05:57.411Z,38.05
2022-11-01T03:08:46.576Z,52.78
2022-11-01T03:11:18.068Z,36.25
2022-11-01T03:14:16.014Z,34.33
2022-11-01T03:16:55.564Z,43.88
2022-11-01T03:19:45.330Z,36.95
2022-11-01T03:22:26.855Z,33.67
2022-11-01T03:25:02.315Z,36.70
2022-11-01T03:27:37.908Z,33.22
2022-11-01T03:30:06.285Z,42.75
2022-11-01T03:32:40.103Z,38.50
2022-11-01T03:35:10.269Z,35.28
2022-11-01T03:37:41.054Z,37.65
2022-11-01T03:40:10.108Z,29.45
2022-11-01T03:42:38.108Z,33.30
2022-11-01T03:45:10.523Z,32.47
2022-11-01T03:47:37.640Z,34.47
2022-11-01T03:50:16.677Z,34.35
2022-11-01T03:52:43.505Z,41.60
2022-11-01T03:55:19.371Z,43.17
2022-11-01T03:57:48.155Z,41.60
2022-11-01T04:00:39.665Z,42.95
2022-11-01T04:03:07.004Z,45.08
2022-11-01T04:05:35.399Z,47.22
2022-11-01T04:08:02.425Z,39.22
2022-11-01T04:10:29.281Z,38.30
2022-11-01T04:12:56.442Z,45.63
2022-11-01T04:15:43.052Z,45.13
2022-11-01T04:18:37.615Z,52.15
2022-11-01T04:21:14.003Z,51.17
2022-11-01T04:23:41.468Z,55.83
2022-11-01T04:26:11.176Z,62.28
2022-11-01T04:31:05.184Z,56.13
2022-11-01T04:33:32.192Z,57.40
2022-11-01T04:35:58.896Z,54.78
2022-11-01T04:38:25.558Z,52.67
2022-11-01T04:40:52.151Z,57.53
2022-11-01T04:43:18.860Z,57.88
2022-11-01T04:45:54.061Z,51.65
2022-11-01T04:48:20.749Z,52.80
2022-11-01T04:50:47.382Z,52.58
2022-11-01T04:53:14.183Z,57.22
2022-11-01T04:55:41.064Z,54.80
2022-11-01T04:58:08.638Z,66.13
2022-11-01T05:00:35.321Z,56.95
2022-11-01T05:03:05.083Z,60.80
2022-11-01T05:05:32.467Z,59.67
2022-11-01T05:08:03.754Z,61.65
2022-11-01T05:10:31.498Z,58.30
2022-11-01T05:12:58.142Z,61.13
2022-11-01T05:15:24.928Z,58.33
2022-11-01T05:17:51.755Z,59.17
2022-11-01T05:20:18.928Z,60.13
2022-11-01T05:22:45.801Z,55.40
2022-11-01T05:25:12.713Z,59.10
2022-11-01T05:27:39.374Z,55.15
2022-11-01T05:30:06.849Z,60.05
2022-11-01T05:32:35.498Z,58.45
2022-11-01T05:35:02.760Z,62.05
2022-11-01T05:37:29.482Z,56.47
2022-11-01T05:39:56.144Z,60.10
2022-11-01T05:42:22.871Z,59.17
2022-11-01T05:44:49.523Z,53.95
2022-11-01T05:47:17.268Z,69.80
2022-11-01T05:49:44.443Z,62.88
2022-11-01T05:52:11.055Z,58.47
2022-11-01T05:54:37.818Z,60.88
2022-11-01T05:57:05.729Z,58.25
2022-11-01T05:59:32.507Z,58.00
2022-11-01T06:01:59.253Z,58.53
2022-11-01T06:04:26.002Z,59.50
2022-11-01T06:06:52.610Z,57.17
2022-11-01T06:09:19.282Z,56.65
2022-11-01T06:11:46.004Z,57.42
2022-11-01T06:14:12.650Z,51.78
2022-11-01T06:16:40.051Z,54.70
2022-11-01T06:19:06.665Z,58.75
2022-11-01T06:21:33.398Z,49.30
2022-11-01T06:24:00.142Z,52.25
2022-11-01T06:26:26.898Z,58.58
2022-11-01T06:28:53.570Z,49.38
2022-11-01T06:31:20.360Z,56.08
2022-11-01T06:33:49.280Z,55.95
2022-11-01T06:36:15.906Z,63.15
2022-11-01T06:38:42.516Z,63.35
2022-11-01T06:41:09.255Z,57.05
2022-11-01T06:43:35.899Z,58.63
2022-11-01T06:46:02.634Z,54.45
2022-11-01T06:48:29.709Z,56.17
2022-11-01T06:50:56.463Z,55.58
2022-11-01T06:53:26.023Z,66.78
2022-11-01T06:55:52.840Z,70.53
2022-11-01T06:58:19.621Z,72.38
2022-11-01T07:00:46.351Z,74.25
2022-11-01T07:03:14.450Z,72.00
2022-11-01T07:05:41.978Z,77.50
2022-11-01T07:08:12.942Z,75.05
2022-11-01T07:10:43.200Z,66.95
2022-11-01T07:13:11.827Z,69.40
2022-11-01T07:15:38.926Z,67.88
2022-11-01T07:18:08.295Z,74.45
2022-11-01T07:20:42.063Z,66.32
2022-11-01T07:23:15.803Z,72.03
2022-11-01T07:25:43.073Z,73.40
2022-11-01T07:28:10.395Z,70.57
2022-11-01T07:30:37.095Z,66.22
2022-11-01T07:33:05.279Z,59.33
2022-11-01T07:35:32.371Z,63.05
2022-11-01T07:38:01.894Z,66.50
2022-11-01T07:40:31.663Z,65.53
2022-11-01T07:43:00.267Z,68.95
2022-11-01T07:45:31.415Z,55.72
2022-11-01T07:48:03.440Z,59.58
2022-11-01T07:50:31.655Z,63.20
2022-11-01T07:53:08.030Z,60.63
2022-11-01T07:55:35.870Z,63.92
2022-11-01T07:58:03.646Z,55.20
2022-11-01T08:00:31.641Z,65.93
2022-11-01T08:03:06.210Z,64.45
2022-11-01T08:05:33.928Z,73.88
2022-11-01T08:08:01.200Z,221.77
2022-11-01T08:10:29.859Z,213.98
2022-11-01T08:13:14.526Z,283.00
2022-11-01T08:15:41.450Z,144.27
2022-11-01T08:18:08.191Z,157.02
2022-11-01T08:20:35.040Z,231.40
2022-11-01T08:23:02.086Z,93.57
2022-11-01T08:25:29.478Z,148.52
2022-11-01T08:28:04.907Z,86.95
2022-11-01T08:30:32.238Z,113.22
2022-11-01T08:33:01.225Z,90.38
2022-11-01T08:35:28.756Z,90.80
2022-11-01T08:37:56.049Z,77.97
2022-11-01T08:40:22.998Z,73.55
2022-11-01T08:42:49.677Z,77.72
2022-11-01T08:45:16.696Z,74.97
2022-11-01T08:47:43.944Z,75.75
2022-11-01T08:50:12.113Z,62.58
2022-11-01T08:52:39.608Z,55.15
2022-11-01T08:55:07.661Z,65.35
2022-11-01T08:57:34.668Z,66.22
2022-11-01T09:00:01.740Z,60.45
2022-11-01T09:02:28.556Z,63.30
2022-11-01T09:04:55.313Z,51.75
2022-11-01T09:07:22.151Z,59.30
2022-11-01T09:09:48.740Z,56.60
2022-11-01T09:12:16.020Z,48.63
2022-11-01T09:14:43.398Z,49.33
2022-11-01T09:17:10.060Z,44.10
2022-11-01T09:19:36.905Z,40.92
2022-11-01T09:22:03.637Z,34.17
2022-11-01T09:24:30.279Z,36.58
2022-11-01T09:26:56.934Z,31.13
2022-11-01T09:29:23.767Z,28.38
2022-11-01T09:31:52.654Z,30.92
2022-11-01T09:34:23.027Z,30.47
2022-11-01T09:36:49.803Z,28.48
2022-11-01T09:39:17.853Z,24.38
2022-11-01T09:41:48.973Z,28.95
2022-11-01T09:44:40.372Z,23.23
2022-11-01T09:47:22.260Z,23.90
2022-11-01T09:49:54.915Z,15.48
2022-11-01T09:52:24.145Z,20.35
2022-11-01T09:54:51.347Z,14.95
2022-11-01T09:57:22.306Z,11.77
2022-11-01T09:59:48.879Z,14.77
2022-11-01T10:02:34.306Z,14.38
2022-11-01T10:05:11.995Z,13.35
2022-11-01T10:07:49.593Z,13.35
2022-11-01T10:10:26.120Z,13.05
2022-11-01T10:13:15.246Z,9.55
2022-11-01T10:15:44.618Z,13.18
2022-11-01T10:18:26.478Z,8.18
2022-11-01T10:20:55.342Z,16.85
2022-11-01T10:23:33.613Z,7.80
2022-11-01T10:26:00.294Z,8.15
2022-11-01T10:28:38.310Z,8.75
2022-11-01T10:31:14.622Z,8.43
2022-11-01T10:33:47.761Z,5.65
2022-11-01T10:39:57.958Z,6.68
2022-11-01T10:42:29.398Z,3.85
2022-11-01T10:45:00.290Z,7.00
2022-11-01T10:47:28.111Z,6.05
2022-11-01T10:50:15.637Z,6.25
2022-11-01T10:52:48.957Z,7.53
2022-11-01T10:55:29.300Z,3.67
2022-11-01T10:58:10.357Z,6.05
2022-11-01T11:00:41.256Z,2.47
2022-11-01T11:03:25.737Z,2.38
2022-11-01T11:05:56.144Z,2.15
2022-11-01T11:08:24.554Z,5.88
2022-11-01T11:10:51.915Z,6.72
2022-11-01T11:13:24.895Z,2.50
2022-11-01T11:15:54.811Z,3.47
2022-11-01T11:18:26.479Z,4.32
2022-11-01T11:20:57.410Z,1.30
2022-11-01T11:23:27.024Z,1.55
2022-11-01T11:26:00.779Z,1.80
2022-11-01T11:28:31.286Z,2.17
2022-11-01T11:31:11.902Z,2.60
2022-11-01T11:33:39.260Z,4.85
2022-11-01T11:36:07.192Z,2.45
2022-11-01T11:38:43.283Z,4.78
2022-11-01T11:41:12.177Z,1.33
2022-11-01T11:43:41.970Z,1.42
2022-11-01T11:46:20.999Z,3.15
2022-11-01T11:48:53.396Z,1.40
2022-11-01T11:51:21.768Z,2.53
2022-11-01T11:54:14.716Z,1.85
2022-11-01T11:56:41.685Z,1.30
2022-11-01T11:59:21.810Z,1.70
2022-11-01T12:01:48.618Z,1.02
2022-11-01T12:04:18.891Z,2.63
2022-11-01T12:06:46.419Z,3.53
2022-11-01T12:09:33.989Z,1.55
2022-11-01T12:12:28.383Z,3.63
2022-11-01T12:14:56.060Z,2.30
2022-11-01T12:17:34.136Z,2.75
2022-11-01T12:20:10.308Z,1.40
2022-11-01T12:22:40.213Z,3.80
2022-11-01T12:25:14.040Z,1.13
2022-11-01T12:27:51.313Z,5.80
2022-11-01T12:30:22.351Z,2.10
2022-11-01T12:32:52.659Z,2.30
2022-11-01T12:35:33.245Z,3.15
2022-11-01T12:38:09.625Z,4.32
2022-11-01T12:40:43.650Z,2.67
2022-11-01T12:43:33.718Z,1.25
2022-11-01T12:46:03.940Z,12.35
2022-11-01T12:48:36.562Z,3.05
2022-11-01T12:51:14.508Z,1.60
2022-11-01T12:53:55.106Z,2.70
2022-11-01T12:56:21.953Z,5.75
2022-11-01T12:58:52.824Z,3.20
2022-11-01T13:01:31.376Z,6.75
2022-11-01T13:04:20.162Z,4.18
2022-11-01T13:06:59.030Z,3.27
2022-11-01T13:09:40.550Z,3.80
2022-11-01T13:12:19.593Z,9.57
2022-11-01T13:14:55.981Z,4.55
2022-11-01T13:17:45.746Z,5.15
2022-11-01T13:20:26.811Z,5.20
2022-11-01T13:23:00.486Z,4.85
2022-11-01T13:25:33.817Z,6.80
2022-11-01T13:28:30.378Z,4.03
2022-11-01T13:31:27.510Z,4.43
2022-11-01T13:34:02.701Z,4.82
2022-11-01T13:36:52.828Z,4.32
2022-11-01T13:39:39.430Z,2.47
2022-11-01T13:42:30.970Z,3.22
2022-11-01T13:45:08.249Z,5.68
2022-11-01T13:47:51.399Z,2.58
2022-11-01T13:50:52.310Z,3.22
2022-11-01T13:53:30.304Z,3.55
2022-11-01T13:56:32.104Z,3.25
2022-11-01T13:58:58.918Z,2.50
2022-11-01T14:01:37.236Z,4.60
2022-11-01T14:04:16.255Z,2.50
2022-11-01T14:07:05.475Z,8.15
2022-11-01T14:09:32.811Z,6.20
2022-11-01T14:12:05.523Z,3.47
2022-11-01T14:14:32.507Z,10.57
2022-11-01T14:17:20.351Z,5.50
2022-11-01T14:20:14.934Z,3.08
2022-11-01T14:22:45.082Z,3.00
2022-11-01T14:25:14.932Z,7.95
2022-11-01T14:27:50.576Z,7.68
2022-11-01T14:30:24.424Z,4.03
2022-11-01T14:33:03.465Z,2.38
2022-11-01T14:35:37.644Z,3.20
2022-11-01T14:38:21.116Z,4.47
2022-11-01T14:40:54.096Z,5.78
2022-11-01T14:43:32.514Z,3.17
2022-11-01T14:46:13.263Z,3.92
2022-11-01T14:48:48.843Z,3.38
2022-11-01T14:51:44.741Z,4.70
2022-11-01T14:54:26.037Z,5.38
2022-11-01T14:56:55.037Z,6.15
2022-11-01T14:59:33.456Z,5.75
2022-11-01T15:02:05.383Z,4.05
2022-11-01T15:04:44.393Z,5.90
2022-11-01T15:07:31.346Z,8.50
2022-11-01T15:10:05.366Z,3.20
2022-11-01T15:12:35.809Z,6.38
2022-11-01T15:15:03.357Z,5.68
2022-11-01T15:17:35.031Z,5.95
2022-11-01T15:20:08.934Z,8.10
2022-11-01T15:22:35.738Z,4.45
2022-11-01T15:25:05.292Z,6.25
2022-11-01T15:27:37.576Z,9.50
2022-11-01T15:30:05.397Z,10.20
2022-11-01T15:32:34.550Z,7.68
2022-11-01T15:35:05.948Z,6.55
2022-11-01T15:37:33.597Z,7.55
2022-11-01T15:40:01.263Z,9.13
2022-11-01T15:42:32.203Z,8.50
2022-11-01T15:45:19.928Z,6.15
2022-11-01T15:47:46.975Z,10.25
2022-11-01T15:50:13.798Z,5.28
2022-11-01T15:52:40.529Z,7.20
2022-11-01T15:55:33.061Z,10.38
2022-11-01T15:58:22.173Z,7.80
2022-11-01T16:01:01.814Z,5.45
2022-11-01T16:06:13.858Z,4.60
2022-11-01T16:08:46.570Z,7.63
2022-11-01T16:11:18.794Z,8.88
2022-11-01T16:13:59.055Z,6.80
2022-11-01T16:16:25.810Z,9.63
2022-11-01T16:18:54.837Z,11.23
2022-11-01T16:21:24.637Z,7.43
2022-11-01T16:27:03.893Z,8.45
2022-11-01T16:30:08.584Z,11.23
2022-11-01T16:32:36.025Z,8.35
2022-11-01T16:35:31.623Z,12.88
2022-11-01T16:37:58.302Z,12.45
2022-11-01T16:40:26.366Z,8.98
2022-11-01T16:42:53.705Z,14.27
2022-11-01T16:45:20.501Z,10.88
2022-11-01T16:47:47.151Z,11.73
2022-11-01T16:50:17.523Z,8.13
2022-11-01T16:52:44.166Z,6.50
2022-11-01T16:55:11.937Z,10.60
2022-11-01T16:57:39.219Z,9.75
2022-11-01T17:00:15.497Z,10.68
2022-11-01T17:02:42.381Z,10.68
2022-11-01T17:05:21.094Z,7.03
2022-11-01T17:07:48.169Z,7.33
2022-11-01T17:10:25.563Z,10.80
2022-11-01T17:12:52.490Z,8.00
2022-11-01T17:15:19.647Z,8.23
2022-11-01T17:17:48.164Z,13.10
2022-11-01T17:20:26.350Z,9.45
2022-11-01T17:22:55.257Z,17.15
2022-11-01T17:25:27.302Z,9.88
2022-11-01T17:27:54.841Z,11.85
2022-11-01T17:30:21.585Z,13.15
2022-11-01T17:32:48.503Z,10.73
2022-11-01T17:35:15.993Z,13.05
2022-11-01T17:37:43.157Z,14.07
2022-11-01T17:40:21.755Z,10.18
2022-11-01T17:42:48.507Z,10.20
2022-11-01T17:45:15.215Z,12.70
2022-11-01T17:47:42.311Z,8.38
2022-11-01T17:50:13.157Z,10.07
2022-11-01T17:52:39.870Z,10.15
2022-11-01T17:55:07.716Z,7.93
2022-11-01T17:57:34.536Z,10.40
2022-11-01T18:00:01.855Z,7.45
2022-11-01T18:02:28.573Z,18.65
2022-11-01T18:04:55.377Z,8.68
2022-11-01T18:07:21.986Z,12.43
2022-11-01T18:09:49.482Z,9.75
2022-11-01T18:12:27.369Z,11.93
2022-11-01T18:15:15.485Z,12.18
2022-11-01T18:18:07.289Z,9.55
2022-11-01T18:20:58.114Z,17.60
2022-11-01T18:23:25.405Z,14.75
2022-11-01T18:25:52.042Z,11.63
2022-11-01T18:28:30.370Z,16.90
2022-11-01T18:30:58.178Z,12.93
2022-11-01T18:33:31.466Z,13.70
2022-11-01T18:36:07.929Z,16.55
2022-11-01T18:38:57.814Z,7.78
2022-11-01T18:41:24.485Z,12.13
2022-11-01T18:43:54.540Z,15.45
2022-11-01T18:46:26.351Z,14.88
2022-11-01T18:49:00.138Z,15.85
2022-11-01T18:51:29.618Z,12.07
2022-11-01T18:53:58.524Z,12.70
2022-11-01T18:56:26.096Z,21.33
2022-11-01T18:58:53.936Z,12.00
2022-11-01T19:01:31.600Z,19.13
2022-11-01T19:04:01.876Z,11.82
2022-11-01T19:06:31.498Z,21.23
2022-11-01T19:09:01.316Z,14.23
2022-11-01T19:11:29.890Z,8.07
2022-11-01T19:13:59.931Z,15.00
2022-11-01T19:16:26.721Z,14.50
2022-11-01T19:18:53.691Z,23.73
2022-11-01T19:21:22.413Z,12.35
2022-11-01T19:23:51.156Z,16.27
2022-11-01T19:26:36.988Z,16.33
2022-11-01T19:29:17.002Z,15.07
2022-11-01T19:31:47.601Z,10.63
2022-11-01T19:34:21.153Z,13.05
2022-11-01T19:36:48.999Z,13.75
2022-11-01T19:39:30.785Z,15.70
2022-11-01T19:42:25.103Z,19.95
2022-11-01T19:45:06.932Z,13.85
2022-11-01T19:47:40.485Z,12.93
2022-11-01T19:50:26.360Z,17.35
2022-11-01T19:52:59.424Z,15.05
2022-11-01T19:55:39.741Z,12.05
2022-11-01T19:58:15.460Z,19.90
2022-11-01T20:00:42.092Z,14.35
2022-11-01T20:03:36.977Z,15.80
2022-11-01T20:06:08.821Z,12.57
2022-11-01T20:08:35.505Z,11.25
2022-11-01T20:11:02.130Z,14.95
2022-11-01T20:13:28.983Z,13.82
2022-11-01T20:15:55.634Z,19.90
2022-11-01T20:18:22.290Z,19.00
2022-11-01T20:20:48.955Z,14.43
2022-11-01T20:23:31.084Z,12.95
2022-11-01T20:25:58.257Z,13.88
2022-11-01T20:28:24.988Z,12.45
2022-11-01T20:30:51.726Z,15.02
2022-11-01T20:33:18.427Z,16.88
2022-11-01T20:35:45.233Z,15.45
2022-11-01T20:38:11.984Z,23.48
2022-11-01T20:40:38.728Z,15.88
2022-11-01T20:43:06.935Z,19.35
2022-11-01T20:45:36.743Z,13.38
2022-11-01T20:48:03.912Z,13.02
2022-11-01T20:50:30.576Z,20.67
2022-11-01T20:52:57.256Z,20.77
2022-11-01T20:55:23.954Z,15.70
2022-11-01T20:57:51.822Z,12.23
2022-11-01T21:00:18.905Z,18.17
2022-11-01T21:02:46.751Z,17.95
2022-11-01T21:05:28.543Z,18.38
2022-11-01T21:08:11.947Z,16.33
2022-11-01T21:10:40.557Z,22.98
2022-11-01T21:13:29.882Z,18.02
2022-11-01T21:15:58.806Z,17.38
2022-11-01T21:18:36.353Z,17.58
2022-11-01T21:21:28.228Z,21.33
2022-11-01T21:23:55.276Z,22.58
2022-11-01T21:26:24.207Z,19.98
2022-11-01T21:29:05.153Z,12.23
2022-11-01T21:31:33.635Z,9.30
2022-11-01T21:34:22.797Z,20.38
2022-11-01T21:36:50.877Z,13.05
2022-11-01T21:39:22.371Z,12.20
2022-11-01T21:41:51.413Z,13.55
2022-11-01T21:44:25.118Z,16.23
2022-11-01T21:46:56.170Z,16.30
2022-11-01T21:49:24.942Z,11.52
2022-11-01T21:51:53.134Z,9.93
2022-11-01T21:54:20.408Z,16.40
2022-11-01T21:56:47.108Z,15.48
2022-11-01T21:59:13.994Z,11.68
2022-11-01T22:01:45.026Z,16.20
2022-11-01T22:04:12.622Z,10.65
2022-11-01T22:06:39.697Z,13.73
2022-11-01T22:09:07.767Z,9.48
2022-11-01T22:11:35.437Z,11.30
2022-11-01T22:14:03.023Z,12.40
2022-11-01T22:16:29.837Z,15.63
2022-11-01T22:18:56.689Z,15.45
2022-11-01T22:21:23.358Z,16.80
2022-11-01T22:23:50.181Z,16.95
2022-11-01T22:26:16.799Z,12.30
2022-11-01T22:28:43.557Z,14.00
2022-11-01T22:31:10.227Z,14.73
2022-11-01T22:33:37.028Z,16.23
2022-11-01T22:36:06.390Z,20.80
2022-11-01T22:38:38.611Z,15.32
2022-11-01T22:41:15.678Z,11.27
2022-11-01T22:43:45.397Z,10.05
2022-11-01T22:48:48.597Z,11.05
2022-11-01T22:51:25.033Z,23.70
2022-11-01T22:53:56.933Z,12.35
2022-11-01T22:56:23.878Z,10.38
2022-11-01T22:58:51.937Z,16.05
2022-11-01T23:01:27.744Z,14.70
2022-11-01T23:03:58.977Z,19.60
2022-11-01T23:06:34.466Z,12.05
2022-11-01T23:09:15.578Z,11.93
2022-11-01T23:12:06.684Z,13.95
2022-11-01T23:14:45.475Z,15.05
2022-11-01T23:17:23.639Z,13.57
2022-11-01T23:19:59.126Z,14.63
2022-11-01T23:22:35.247Z,15.32
2022-11-01T23:25:03.598Z,16.13
2022-11-01T23:27:30.365Z,10.88
2022-11-01T23:30:00.276Z,14.35
2022-11-01T23:32:27.191Z,15.75
2022-11-01T23:35:19.122Z,9.30
2022-11-01T23:37:46.427Z,25.58
2022-11-01T23:40:19.072Z,16.50
2022-11-01T23:42:46.858Z,12.82
2022-11-01T23:45:29.073Z,13.20
2022-11-01T23:47:56.303Z,20.00
2022-11-01T23:50:32.405Z,11.05
2022-11-01T23:53:05.529Z,7.63
2022-11-01T23:55:37.934Z,17.55
2022-11-01T23:58:12.735Z,12.02
